sensor_id;sensor_type;location;lat;lon;timestamp;pressure;altitude;pressure_sealevel;temperature;humidity
81155;BME280;70631;50.436;7.826;2023-07-13T00:02:15;99088.09;;;20.26;48.74
81155;BME280;70631;50.436;7.826;2023-07-13T00:04:40;99079.16;;;20.26;48.81
81155;BME280;70631;50.436;7.826;2023-07-13T00:07:05;99071.25;;;20.24;48.51
81155;BME280;70631;50.436;7.826;2023-07-13T00:09:30;99082.47;;;20.21;48.56
81155;BME280;70631;50.436;7.826;2023-07-13T00:11:57;99082.91;;;20.18;48.54
81155;BME280;70631;50.436;7.826;2023-07-13T00:14:24;99077.03;;;20.14;48.53
81155;BME280;70631;50.436;7.826;2023-07-13T00:16:50;99079.13;;;20.12;48.19
81155;BME280;70631;50.436;7.826;2023-07-13T00:19:15;99076.22;;;20.07;47.98
81155;BME280;70631;50.436;7.826;2023-07-13T00:21:41;99072.91;;;20.05;48.24
81155;BME280;70631;50.436;7.826;2023-07-13T00:24:08;99079.56;;;20.03;48.20
81155;BME280;70631;50.436;7.826;2023-07-13T00:26:37;99075.81;;;19.97;48.07
81155;BME280;70631;50.436;7.826;2023-07-13T00:29:03;99063.72;;;19.93;48.12
81155;BME280;70631;50.436;7.826;2023-07-13T00:31:28;99062.47;;;19.89;48.40
81155;BME280;70631;50.436;7.826;2023-07-13T00:33:53;99068.31;;;19.86;48.47
81155;BME280;70631;50.436;7.826;2023-07-13T00:36:19;99063.31;;;19.83;48.41
81155;BME280;70631;50.436;7.826;2023-07-13T00:38:45;99069.75;;;19.82;48.53
81155;BME280;70631;50.436;7.826;2023-07-13T00:41:11;99070.16;;;19.79;48.47
81155;BME280;70631;50.436;7.826;2023-07-13T00:43:36;99066.22;;;19.75;48.41
81155;BME280;70631;50.436;7.826;2023-07-13T00:48:34;99079.28;;;19.58;49.16
81155;BME280;70631;50.436;7.826;2023-07-13T00:51:00;99087.59;;;19.57;49.01
81155;BME280;70631;50.436;7.826;2023-07-13T00:53:28;99076.91;;;19.48;49.30
81155;BME280;70631;50.436;7.826;2023-07-13T00:55:55;99079.81;;;19.40;49.30
81155;BME280;70631;50.436;7.826;2023-07-13T00:58:22;99086.03;;;19.34;49.21
81155;BME280;70631;50.436;7.826;2023-07-13T01:00:48;99087.84;;;19.27;49.68
81155;BME280;70631;50.436;7.826;2023-07-13T01:03:15;99092.41;;;19.20;49.70
81155;BME280;70631;50.436;7.826;2023-07-13T01:05:40;99086.16;;;19.13;49.62
81155;BME280;70631;50.436;7.826;2023-07-13T01:08:05;99094.22;;;19.06;50.14
81155;BME280;70631;50.436;7.826;2023-07-13T01:10:31;99080.47;;;19.01;50.21
81155;BME280;70631;50.436;7.826;2023-07-13T01:13:04;99085.03;;;18.94;50.50
81155;BME280;70631;50.436;7.826;2023-07-13T01:15:42;99080.38;;;18.81;49.96
81155;BME280;70631;50.436;7.826;2023-07-13T01:18:10;99077.03;;;18.79;50.52
81155;BME280;70631;50.436;7.826;2023-07-13T01:20:37;99078.03;;;18.72;50.49
81155;BME280;70631;50.436;7.826;2023-07-13T01:23:07;99076.88;;;18.59;50.95
81155;BME280;70631;50.436;7.826;2023-07-13T01:25:34;99083.06;;;18.53;50.89
81155;BME280;70631;50.436;7.826;2023-07-13T01:28:01;99079.31;;;18.48;51.56
81155;BME280;70631;50.436;7.826;2023-07-13T01:30:26;99077.78;;;18.39;51.65
81155;BME280;70631;50.436;7.826;2023-07-13T01:32:52;99076.91;;;18.31;51.51
81155;BME280;70631;50.436;7.826;2023-07-13T01:35:17;99080.59;;;18.24;52.01
81155;BME280;70631;50.436;7.826;2023-07-13T01:37:42;99083.59;;;18.14;52.37
81155;BME280;70631;50.436;7.826;2023-07-13T01:40:10;99079.38;;;18.05;52.82
81155;BME280;70631;50.436;7.826;2023-07-13T01:42:36;99083.50;;;18.01;52.63
81155;BME280;70631;50.436;7.826;2023-07-13T01:45:02;99077.84;;;17.96;52.77
81155;BME280;70631;50.436;7.826;2023-07-13T01:47:29;99072.41;;;17.89;53.13
81155;BME280;70631;50.436;7.826;2023-07-13T01:49:56;99078.13;;;17.80;53.63
81155;BME280;70631;50.436;7.826;2023-07-13T01:52:21;99075.53;;;17.71;53.42
81155;BME280;70631;50.436;7.826;2023-07-13T01:54:47;99070.25;;;17.63;53.94
81155;BME280;70631;50.436;7.826;2023-07-13T01:57:12;99072.88;;;17.57;53.70
81155;BME280;70631;50.436;7.826;2023-07-13T01:59:38;99077.53;;;17.48;53.85
81155;BME280;70631;50.436;7.826;2023-07-13T02:02:03;99090.75;;;17.43;54.38
81155;BME280;70631;50.436;7.826;2023-07-13T02:04:28;99095.06;;;17.37;54.37
81155;BME280;70631;50.436;7.826;2023-07-13T02:06:54;99089.38;;;17.32;54.38
81155;BME280;70631;50.436;7.826;2023-07-13T02:09:20;99087.25;;;17.28;54.65
81155;BME280;70631;50.436;7.826;2023-07-13T02:11:46;99086.59;;;17.26;55.20
81155;BME280;70631;50.436;7.826;2023-07-13T02:14:11;99081.59;;;17.23;55.23
81155;BME280;70631;50.436;7.826;2023-07-13T02:16:36;99087.94;;;17.15;55.86
81155;BME280;70631;50.436;7.826;2023-07-13T02:19:01;99099.06;;;17.12;56.05
81155;BME280;70631;50.436;7.826;2023-07-13T02:21:27;99092.97;;;17.03;56.50
81155;BME280;70631;50.436;7.826;2023-07-13T02:23:52;99093.91;;;16.96;56.76
81155;BME280;70631;50.436;7.826;2023-07-13T02:26:18;99092.97;;;16.89;56.84
81155;BME280;70631;50.436;7.826;2023-07-13T02:28:43;99091.66;;;16.85;57.19
81155;BME280;70631;50.436;7.826;2023-07-13T02:31:12;99102.63;;;16.83;56.99
81155;BME280;70631;50.436;7.826;2023-07-13T02:33:38;99097.59;;;16.80;56.98
81155;BME280;70631;50.436;7.826;2023-07-13T02:36:05;99101.50;;;16.77;57.27
81155;BME280;70631;50.436;7.826;2023-07-13T02:38:34;99095.66;;;16.74;57.86
81155;BME280;70631;50.436;7.826;2023-07-13T02:41:00;99096.03;;;16.71;57.47
81155;BME280;70631;50.436;7.826;2023-07-13T02:43:25;99103.78;;;16.66;57.98
81155;BME280;70631;50.436;7.826;2023-07-13T02:45:50;99102.47;;;16.62;58.05
81155;BME280;70631;50.436;7.826;2023-07-13T02:48:16;99108.59;;;16.56;58.33
81155;BME280;70631;50.436;7.826;2023-07-13T02:50:41;99110.84;;;16.52;58.28
81155;BME280;70631;50.436;7.826;2023-07-13T02:53:07;99102.31;;;16.48;58.23
81155;BME280;70631;50.436;7.826;2023-07-13T02:55:32;99099.50;;;16.42;58.31
81155;BME280;70631;50.436;7.826;2023-07-13T02:57:57;99105.06;;;16.40;57.75
81155;BME280;70631;50.436;7.826;2023-07-13T03:00:23;99105.41;;;16.37;58.39
81155;BME280;70631;50.436;7.826;2023-07-13T03:02:49;99101.25;;;16.35;58.74
81155;BME280;70631;50.436;7.826;2023-07-13T03:05:14;99100.78;;;16.31;58.78
81155;BME280;70631;50.436;7.826;2023-07-13T03:07:40;99110.69;;;16.31;59.06
81155;BME280;70631;50.436;7.826;2023-07-13T03:10:05;99102.31;;;16.26;58.87
81155;BME280;70631;50.436;7.826;2023-07-13T03:12:32;99104.91;;;16.19;58.59
81155;BME280;70631;50.436;7.826;2023-07-13T03:14:57;99109.63;;;16.17;59.27
81155;BME280;70631;50.436;7.826;2023-07-13T03:17:22;99106.94;;;16.17;59.37
81155;BME280;70631;50.436;7.826;2023-07-13T03:19:48;99102.31;;;16.11;59.11
81155;BME280;70631;50.436;7.826;2023-07-13T03:22:16;99115.09;;;16.09;58.90
81155;BME280;70631;50.436;7.826;2023-07-13T03:24:41;99114.44;;;16.07;59.35
81155;BME280;70631;50.436;7.826;2023-07-13T03:27:06;99113.09;;;16.03;59.31
81155;BME280;70631;50.436;7.826;2023-07-13T03:29:32;99112.28;;;16.02;58.67
81155;BME280;70631;50.436;7.826;2023-07-13T03:31:57;99102.06;;;15.98;58.68
81155;BME280;70631;50.436;7.826;2023-07-13T03:34:22;99104.09;;;15.96;59.06
81155;BME280;70631;50.436;7.826;2023-07-13T03:36:48;99115.88;;;15.95;58.88
81155;BME280;70631;50.436;7.826;2023-07-13T03:39:13;99119.94;;;15.91;58.62
81155;BME280;70631;50.436;7.826;2023-07-13T03:41:38;99119.94;;;15.91;58.40
81155;BME280;70631;50.436;7.826;2023-07-13T03:44:04;99118.44;;;15.88;58.45
81155;BME280;70631;50.436;7.826;2023-07-13T03:46:29;99123.34;;;15.84;59.07
81155;BME280;70631;50.436;7.826;2023-07-13T03:48:55;99125.53;;;15.81;59.33
81155;BME280;70631;50.436;7.826;2023-07-13T03:51:21;99119.50;;;15.79;59.38
81155;BME280;70631;50.436;7.826;2023-07-13T03:53:47;99122.19;;;15.79;59.78
81155;BME280;70631;50.436;7.826;2023-07-13T03:56:13;99123.03;;;15.79;59.77
81155;BME280;70631;50.436;7.826;2023-07-13T03:58:41;99129.59;;;15.77;59.70
81155;BME280;70631;50.436;7.826;2023-07-13T04:01:08;99120.88;;;15.75;59.74
81155;BME280;70631;50.436;7.826;2023-07-13T04:03:34;99128.28;;;15.73;60.43
81155;BME280;70631;50.436;7.826;2023-07-13T04:06:01;99133.84;;;15.71;60.60
81155;BME280;70631;50.436;7.826;2023-07-13T04:08:28;99130.31;;;15.71;60.53
81155;BME280;70631;50.436;7.826;2023-07-13T04:10:54;99131.50;;;15.68;61.04
81155;BME280;70631;50.436;7.826;2023-07-13T04:13:19;99130.00;;;15.66;61.14
81155;BME280;70631;50.436;7.826;2023-07-13T04:15:45;99128.16;;;15.66;61.39
81155;BME280;70631;50.436;7.826;2023-07-13T04:18:10;99130.66;;;15.68;61.20
81155;BME280;70631;50.436;7.826;2023-07-13T04:20:35;99134.84;;;15.70;61.17
81155;BME280;70631;50.436;7.826;2023-07-13T04:23:00;99131.16;;;15.71;61.53
81155;BME280;70631;50.436;7.826;2023-07-13T04:25:26;99129.47;;;15.70;61.26
81155;BME280;70631;50.436;7.826;2023-07-13T04:27:52;99133.66;;;15.73;61.30
81155;BME280;70631;50.436;7.826;2023-07-13T04:30:18;99135.31;;;15.74;61.10
81155;BME280;70631;50.436;7.826;2023-07-13T04:32:44;99135.16;;;15.75;61.35
81155;BME280;70631;50.436;7.826;2023-07-13T04:35:09;99134.78;;;15.78;61.35
81155;BME280;70631;50.436;7.826;2023-07-13T04:37:34;99137.78;;;15.83;61.03
81155;BME280;70631;50.436;7.826;2023-07-13T04:40:00;99133.72;;;15.87;61.04
81155;BME280;70631;50.436;7.826;2023-07-13T04:42:26;99141.44;;;15.91;60.85
81155;BME280;70631;50.436;7.826;2023-07-13T04:44:52;99140.06;;;15.95;61.03
81155;BME280;70631;50.436;7.826;2023-07-13T04:47:18;99141.72;;;15.96;60.91
81155;BME280;70631;50.436;7.826;2023-07-13T04:49:44;99133.28;;;15.99;60.44
81155;BME280;70631;50.436;7.826;2023-07-13T04:52:09;99136.47;;;16.02;60.41
81155;BME280;70631;50.436;7.826;2023-07-13T04:54:35;99136.59;;;16.09;59.82
81155;BME280;70631;50.436;7.826;2023-07-13T04:57:00;99138.84;;;16.20;59.91
81155;BME280;70631;50.436;7.826;2023-07-13T04:59:26;99145.47;;;16.32;59.17
81155;BME280;70631;50.436;7.826;2023-07-13T05:01:51;99144.56;;;16.40;58.77
81155;BME280;70631;50.436;7.826;2023-07-13T05:04:17;99142.47;;;16.50;58.18
81155;BME280;70631;50.436;7.826;2023-07-13T05:06:42;99139.50;;;16.60;58.27
81155;BME280;70631;50.436;7.826;2023-07-13T05:09:07;99145.47;;;16.70;57.83
81155;BME280;70631;50.436;7.826;2023-07-13T05:11:33;99143.34;;;16.80;57.47
81155;BME280;70631;50.436;7.826;2023-07-13T05:13:58;99145.56;;;16.91;57.94
81155;BME280;70631;50.436;7.826;2023-07-13T05:16:24;99149.47;;;17.03;57.37
81155;BME280;70631;50.436;7.826;2023-07-13T05:18:49;99151.63;;;17.23;57.10
81155;BME280;70631;50.436;7.826;2023-07-13T05:21:14;99151.28;;;19.31;52.86
81155;BME280;70631;50.436;7.826;2023-07-13T05:23:39;99149.44;;;22.46;46.95
81155;BME280;70631;50.436;7.826;2023-07-13T05:26:07;99145.84;;;24.82;41.39
81155;BME280;70631;50.436;7.826;2023-07-13T05:28:32;99141.09;;;26.66;38.94
81155;BME280;70631;50.436;7.826;2023-07-13T05:30:58;99149.91;;;28.16;35.63
81155;BME280;70631;50.436;7.826;2023-07-13T05:33:24;99151.28;;;29.52;33.58
81155;BME280;70631;50.436;7.826;2023-07-13T05:35:49;99151.25;;;30.60;31.32
81155;BME280;70631;50.436;7.826;2023-07-13T05:38:15;99151.31;;;31.66;29.97
81155;BME280;70631;50.436;7.826;2023-07-13T05:40:43;99135.97;;;32.48;28.77
81155;BME280;70631;50.436;7.826;2023-07-13T05:43:09;99142.72;;;33.24;27.40
81155;BME280;70631;50.436;7.826;2023-07-13T05:45:34;99144.78;;;34.03;26.32
81155;BME280;70631;50.436;7.826;2023-07-13T05:47:59;99146.16;;;34.76;25.14
81155;BME280;70631;50.436;7.826;2023-07-13T05:50:26;99150.81;;;35.41;24.55
81155;BME280;70631;50.436;7.826;2023-07-13T05:52:51;99156.00;;;35.97;23.78
81155;BME280;70631;50.436;7.826;2023-07-13T05:55:17;99146.56;;;36.57;22.81
81155;BME280;70631;50.436;7.826;2023-07-13T05:57:42;99147.34;;;36.93;22.46
81155;BME280;70631;50.436;7.826;2023-07-13T06:00:08;99153.28;;;37.40;21.83
81155;BME280;70631;50.436;7.826;2023-07-13T06:02:33;99152.94;;;37.90;21.15
81155;BME280;70631;50.436;7.826;2023-07-13T06:04:58;99159.91;;;38.18;21.17
81155;BME280;70631;50.436;7.826;2023-07-13T06:07:24;99165.94;;;38.55;20.97
81155;BME280;70631;50.436;7.826;2023-07-13T06:09:49;99165.16;;;38.63;20.21
81155;BME280;70631;50.436;7.826;2023-07-13T06:12:14;99164.94;;;38.60;20.17
81155;BME280;70631;50.436;7.826;2023-07-13T06:14:39;99170.19;;;38.87;20.14
81155;BME280;70631;50.436;7.826;2023-07-13T06:17:05;99166.13;;;39.31;19.68
81155;BME280;70631;50.436;7.826;2023-07-13T06:19:31;99170.13;;;39.60;19.92
81155;BME280;70631;50.436;7.826;2023-07-13T06:21:56;99169.06;;;39.73;19.16
81155;BME280;70631;50.436;7.826;2023-07-13T06:24:23;99174.72;;;39.85;19.26
81155;BME280;70631;50.436;7.826;2023-07-13T06:26:48;99174.38;;;39.95;19.16
81155;BME280;70631;50.436;7.826;2023-07-13T06:29:14;99171.53;;;39.75;18.96
81155;BME280;70631;50.436;7.826;2023-07-13T06:31:39;99176.97;;;40.21;18.58
81155;BME280;70631;50.436;7.826;2023-07-13T06:34:04;99187.38;;;40.75;18.38
81155;BME280;70631;50.436;7.826;2023-07-13T06:36:29;99179.81;;;41.08;18.20
81155;BME280;70631;50.436;7.826;2023-07-13T06:38:55;99176.63;;;41.31;18.41
81155;BME280;70631;50.436;7.826;2023-07-13T06:41:20;99182.94;;;41.52;18.35
81155;BME280;70631;50.436;7.826;2023-07-13T06:43:47;99180.72;;;42.06;18.19
81155;BME280;70631;50.436;7.826;2023-07-13T06:46:12;99178.69;;;42.31;17.34
81155;BME280;70631;50.436;7.826;2023-07-13T06:48:38;99183.44;;;41.09;18.60
81155;BME280;70631;50.436;7.826;2023-07-13T06:51:03;99185.16;;;40.26;18.87
81155;BME280;70631;50.436;7.826;2023-07-13T06:53:28;99191.97;;;40.58;18.72
81155;BME280;70631;50.436;7.826;2023-07-13T06:55:54;99195.25;;;40.81;17.96
81155;BME280;70631;50.436;7.826;2023-07-13T06:58:19;99191.81;;;39.46;19.37
81155;BME280;70631;50.436;7.826;2023-07-13T07:00:46;99193.56;;;39.03;19.87
81155;BME280;70631;50.436;7.826;2023-07-13T07:03:11;99189.44;;;40.24;19.25
81155;BME280;70631;50.436;7.826;2023-07-13T07:05:37;99198.41;;;40.71;18.72
81155;BME280;70631;50.436;7.826;2023-07-13T07:08:02;99198.09;;;40.31;18.56
81155;BME280;70631;50.436;7.826;2023-07-13T07:10:29;99190.53;;;40.31;18.76
81155;BME280;70631;50.436;7.826;2023-07-13T07:12:55;99193.25;;;39.98;19.39
81155;BME280;70631;50.436;7.826;2023-07-13T07:15:20;99199.53;;;40.37;18.43
81155;BME280;70631;50.436;7.826;2023-07-13T07:17:45;99194.81;;;41.25;18.39
81155;BME280;70631;50.436;7.826;2023-07-13T07:20:11;99199.47;;;42.06;17.95
81155;BME280;70631;50.436;7.826;2023-07-13T07:22:37;99190.19;;;41.77;17.55
81155;BME280;70631;50.436;7.826;2023-07-13T07:25:02;99189.94;;;41.46;17.21
81155;BME280;70631;50.436;7.826;2023-07-13T07:27:27;99196.41;;;40.59;18.45
81155;BME280;70631;50.436;7.826;2023-07-13T07:29:53;99204.28;;;40.16;18.65
81155;BME280;70631;50.436;7.826;2023-07-13T07:32:19;99200.72;;;40.07;18.69
81155;BME280;70631;50.436;7.826;2023-07-13T07:34:45;99194.44;;;39.51;19.35
81155;BME280;70631;50.436;7.826;2023-07-13T07:37:12;99202.41;;;39.23;18.94
81155;BME280;70631;50.436;7.826;2023-07-13T07:39:38;99206.56;;;38.56;19.56
81155;BME280;70631;50.436;7.826;2023-07-13T07:42:03;99207.03;;;38.58;19.71
81155;BME280;70631;50.436;7.826;2023-07-13T07:44:30;99208.56;;;38.73;19.57
81155;BME280;70631;50.436;7.826;2023-07-13T07:46:55;99200.50;;;38.19;20.24
81155;BME280;70631;50.436;7.826;2023-07-13T07:49:21;99201.56;;;37.92;20.31
81155;BME280;70631;50.436;7.826;2023-07-13T07:51:46;99213.59;;;38.28;19.63
81155;BME280;70631;50.436;7.826;2023-07-13T07:54:11;99208.72;;;38.85;19.85
81155;BME280;70631;50.436;7.826;2023-07-13T07:56:37;99200.25;;;39.75;18.86
81155;BME280;70631;50.436;7.826;2023-07-13T07:59:02;99207.16;;;40.70;18.35
81155;BME280;70631;50.436;7.826;2023-07-13T08:01:27;99206.34;;;41.35;17.64
81155;BME280;70631;50.436;7.826;2023-07-13T08:03:52;99208.38;;;41.71;17.86
81155;BME280;70631;50.436;7.826;2023-07-13T08:06:18;99199.41;;;41.90;17.52
81155;BME280;70631;50.436;7.826;2023-07-13T08:08:45;99198.09;;;42.00;17.03
81155;BME280;70631;50.436;7.826;2023-07-13T08:11:10;99208.59;;;42.15;16.94
81155;BME280;70631;50.436;7.826;2023-07-13T08:13:36;99192.63;;;42.16;16.86
81155;BME280;70631;50.436;7.826;2023-07-13T08:16:04;99191.81;;;41.78;17.09
81155;BME280;70631;50.436;7.826;2023-07-13T08:18:29;99198.91;;;41.51;17.34
81155;BME280;70631;50.436;7.826;2023-07-13T08:20:55;99200.44;;;41.16;17.87
81155;BME280;70631;50.436;7.826;2023-07-13T08:23:22;99189.22;;;41.61;17.86
81155;BME280;70631;50.436;7.826;2023-07-13T08:25:54;99196.25;;;41.92;17.33
81155;BME280;70631;50.436;7.826;2023-07-13T08:28:20;99193.69;;;42.11;16.90
81155;BME280;70631;50.436;7.826;2023-07-13T08:30:46;99194.31;;;42.32;16.94
81155;BME280;70631;50.436;7.826;2023-07-13T08:33:19;99193.78;;;41.78;16.67
81155;BME280;70631;50.436;7.826;2023-07-13T08:35:48;99187.63;;;41.72;17.26
81155;BME280;70631;50.436;7.826;2023-07-13T08:38:15;99193.41;;;41.55;17.18
81155;BME280;70631;50.436;7.826;2023-07-13T08:40:41;99195.88;;;41.57;17.53
81155;BME280;70631;50.436;7.826;2023-07-13T08:43:13;99200.41;;;41.37;17.89
81155;BME280;70631;50.436;7.826;2023-07-13T08:45:52;99188.41;;;40.91;17.42
81155;BME280;70631;50.436;7.826;2023-07-13T08:48:36;99194.63;;;40.13;18.09
81155;BME280;70631;50.436;7.826;2023-07-13T08:53:49;99196.72;;;39.10;19.02
81155;BME280;70631;50.436;7.826;2023-07-13T08:56:33;99182.31;;;38.74;19.46
81155;BME280;70631;50.436;7.826;2023-07-13T08:59:06;99182.44;;;38.95;19.41
81155;BME280;70631;50.436;7.826;2023-07-13T09:04:21;99181.59;;;39.20;19.04
81155;BME280;70631;50.436;7.826;2023-07-13T09:09:48;99183.47;;;38.47;19.13
81155;BME280;70631;50.436;7.826;2023-07-13T09:15:18;99181.94;;;37.98;19.56
81155;BME280;70631;50.436;7.826;2023-07-13T09:17:49;99170.22;;;38.27;20.00
81155;BME280;70631;50.436;7.826;2023-07-13T09:20:49;99178.22;;;37.62;20.29
81155;BME280;70631;50.436;7.826;2023-07-13T09:23:19;99175.84;;;37.87;19.19
81155;BME280;70631;50.436;7.826;2023-07-13T09:25:47;99167.88;;;38.03;19.26
81155;BME280;70631;50.436;7.826;2023-07-13T09:28:20;99175.56;;;38.06;19.23
81155;BME280;70631;50.436;7.826;2023-07-13T09:31:11;99175.00;;;37.07;19.99
81155;BME280;70631;50.436;7.826;2023-07-13T09:33:39;99175.72;;;35.96;21.22
81155;BME280;70631;50.436;7.826;2023-07-13T09:36:19;99169.06;;;35.69;20.58
81155;BME280;70631;50.436;7.826;2023-07-13T09:38:45;99179.50;;;35.31;21.20
81155;BME280;70631;50.436;7.826;2023-07-13T09:41:53;99167.09;;;37.23;19.78
81155;BME280;70631;50.436;7.826;2023-07-13T09:44:38;99163.50;;;38.45;19.31
81155;BME280;70631;50.436;7.826;2023-07-13T09:47:19;99158.69;;;39.53;18.31
81155;BME280;70631;50.436;7.826;2023-07-13T09:49:44;99164.53;;;39.89;17.95
81155;BME280;70631;50.436;7.826;2023-07-13T09:52:12;99165.94;;;40.04;17.55
81155;BME280;70631;50.436;7.826;2023-07-13T09:54:39;99162.59;;;40.31;17.12
81155;BME280;70631;50.436;7.826;2023-07-13T09:57:13;99168.03;;;40.70;16.58
81155;BME280;70631;50.436;7.826;2023-07-13T09:59:50;99166.16;;;40.61;16.89
81155;BME280;70631;50.436;7.826;2023-07-13T10:02:27;99156.03;;;40.69;17.06
81155;BME280;70631;50.436;7.826;2023-07-13T10:04:59;99156.63;;;40.75;16.06
81155;BME280;70631;50.436;7.826;2023-07-13T10:07:25;99172.16;;;40.51;16.92
81155;BME280;70631;50.436;7.826;2023-07-13T10:09:55;99157.09;;;40.44;16.76
81155;BME280;70631;50.436;7.826;2023-07-13T10:12:22;99161.69;;;38.40;17.41
81155;BME280;70631;50.436;7.826;2023-07-13T10:14:51;99167.59;;;38.73;17.59
81155;BME280;70631;50.436;7.826;2023-07-13T10:17:26;99163.69;;;39.21;17.01
81155;BME280;70631;50.436;7.826;2023-07-13T10:19:57;99159.66;;;39.57;16.91
81155;BME280;70631;50.436;7.826;2023-07-13T10:22:32;99149.91;;;39.25;17.71
81155;BME280;70631;50.436;7.826;2023-07-13T10:25:01;99151.63;;;39.00;18.00
81155;BME280;70631;50.436;7.826;2023-07-13T10:27:35;99158.34;;;39.46;17.50
81155;BME280;70631;50.436;7.826;2023-07-13T10:30:20;99168.13;;;39.98;16.97
81155;BME280;70631;50.436;7.826;2023-07-13T10:32:48;99159.47;;;40.54;16.33
81155;BME280;70631;50.436;7.826;2023-07-13T10:35:15;99164.66;;;40.43;16.91
81155;BME280;70631;50.436;7.826;2023-07-13T10:37:49;99157.78;;;40.74;16.11
81155;BME280;70631;50.436;7.826;2023-07-13T10:40:23;99158.44;;;40.38;16.09
81155;BME280;70631;50.436;7.826;2023-07-13T10:42:53;99156.38;;;39.46;16.85
81155;BME280;70631;50.436;7.826;2023-07-13T10:45:22;99159.19;;;38.82;17.58
81155;BME280;70631;50.436;7.826;2023-07-13T10:47:50;99159.91;;;37.61;18.66
81155;BME280;70631;50.436;7.826;2023-07-13T10:50:22;99157.50;;;37.07;18.68
81155;BME280;70631;50.436;7.826;2023-07-13T10:52:53;99148.28;;;37.59;18.87
81155;BME280;70631;50.436;7.826;2023-07-13T10:55:54;99154.91;;;37.89;18.79
81155;BME280;70631;50.436;7.826;2023-07-13T11:01:01;99153.09;;;37.06;18.86
81155;BME280;70631;50.436;7.826;2023-07-13T11:03:29;99168.78;;;36.34;19.54
81155;BME280;70631;50.436;7.826;2023-07-13T11:08:59;99168.09;;;34.73;20.43
81155;BME280;70631;50.436;7.826;2023-07-13T11:13:57;99170.72;;;33.89;21.63
81155;BME280;70631;50.436;7.826;2023-07-13T11:18:54;99170.97;;;33.16;22.00
81155;BME280;70631;50.436;7.826;2023-07-13T11:21:34;99172.25;;;33.52;22.22
81155;BME280;70631;50.436;7.826;2023-07-13T11:24:17;99170.13;;;32.91;22.51
81155;BME280;70631;50.436;7.826;2023-07-13T11:26:51;99183.88;;;32.62;23.07
81155;BME280;70631;50.436;7.826;2023-07-13T11:32:00;99171.00;;;32.03;23.25
81155;BME280;70631;50.436;7.826;2023-07-13T11:34:38;99178.59;;;31.67;24.06
81155;BME280;70631;50.436;7.826;2023-07-13T11:37:10;99176.75;;;31.47;24.22
81155;BME280;70631;50.436;7.826;2023-07-13T11:39:39;99177.84;;;31.41;24.14
81155;BME280;70631;50.436;7.826;2023-07-13T11:42:10;99188.09;;;31.15;24.68
81155;BME280;70631;50.436;7.826;2023-07-13T11:44:42;99184.00;;;30.87;24.50
81155;BME280;70631;50.436;7.826;2023-07-13T11:47:11;99187.59;;;30.62;25.33
81155;BME280;70631;50.436;7.826;2023-07-13T11:49:44;99202.03;;;30.12;25.82
81155;BME280;70631;50.436;7.826;2023-07-13T11:52:15;99192.84;;;29.86;25.97
81155;BME280;70631;50.436;7.826;2023-07-13T11:54:46;99191.94;;;29.65;26.85
81155;BME280;70631;50.436;7.826;2023-07-13T11:57:28;99196.59;;;29.60;27.12
81155;BME280;70631;50.436;7.826;2023-07-13T11:59:55;99200.81;;;29.83;26.85
81155;BME280;70631;50.436;7.826;2023-07-13T12:04:52;99199.66;;;29.68;26.96
81155;BME280;70631;50.436;7.826;2023-07-13T12:07:18;99199.03;;;29.51;26.94
81155;BME280;70631;50.436;7.826;2023-07-13T12:09:44;99196.84;;;29.53;27.15
81155;BME280;70631;50.436;7.826;2023-07-13T12:12:16;99199.56;;;29.48;27.23
81155;BME280;70631;50.436;7.826;2023-07-13T12:14:42;99206.69;;;29.49;27.62
81155;BME280;70631;50.436;7.826;2023-07-13T12:17:28;99206.13;;;29.47;27.18
81155;BME280;70631;50.436;7.826;2023-07-13T12:19:53;99199.38;;;29.70;27.74
81155;BME280;70631;50.436;7.826;2023-07-13T12:22:19;99206.03;;;29.79;27.47
81155;BME280;70631;50.436;7.826;2023-07-13T12:24:46;99199.72;;;29.84;27.22
81155;BME280;70631;50.436;7.826;2023-07-13T12:27:26;99206.31;;;29.83;27.57
81155;BME280;70631;50.436;7.826;2023-07-13T12:29:58;99203.31;;;29.89;27.33
81155;BME280;70631;50.436;7.826;2023-07-13T12:32:25;99204.69;;;29.92;27.36
81155;BME280;70631;50.436;7.826;2023-07-13T12:34:56;99209.28;;;29.71;26.95
81155;BME280;70631;50.436;7.826;2023-07-13T12:37:22;99214.44;;;29.52;27.67
81155;BME280;70631;50.436;7.826;2023-07-13T12:39:49;99217.94;;;29.47;27.79
81155;BME280;70631;50.436;7.826;2023-07-13T12:42:28;99220.81;;;29.26;27.40
81155;BME280;70631;50.436;7.826;2023-07-13T12:45:20;99217.91;;;29.05;28.31
81155;BME280;70631;50.436;7.826;2023-07-13T12:47:49;99220.19;;;29.13;28.02
81155;BME280;70631;50.436;7.826;2023-07-13T12:50:17;99215.22;;;29.10;27.67
81155;BME280;70631;50.436;7.826;2023-07-13T12:52:43;99219.06;;;29.09;27.98
81155;BME280;70631;50.436;7.826;2023-07-13T12:55:17;99222.59;;;29.05;27.93
81155;BME280;70631;50.436;7.826;2023-07-13T12:57:51;99208.69;;;29.16;27.83
81155;BME280;70631;50.436;7.826;2023-07-13T13:00:30;99217.03;;;29.32;27.89
81155;BME280;70631;50.436;7.826;2023-07-13T13:03:02;99221.59;;;29.58;27.58
81155;BME280;70631;50.436;7.826;2023-07-13T13:05:29;99224.38;;;29.68;27.69
81155;BME280;70631;50.436;7.826;2023-07-13T13:07:55;99229.31;;;29.66;27.61
81155;BME280;70631;50.436;7.826;2023-07-13T13:10:20;99226.50;;;29.51;27.71
81155;BME280;70631;50.436;7.826;2023-07-13T13:12:46;99236.13;;;29.54;27.93
81155;BME280;70631;50.436;7.826;2023-07-13T13:15:13;99230.91;;;29.57;27.73
81155;BME280;70631;50.436;7.826;2023-07-13T13:17:38;99238.59;;;29.55;27.62
81155;BME280;70631;50.436;7.826;2023-07-13T13:20:18;99229.88;;;29.26;28.11
81155;BME280;70631;50.436;7.826;2023-07-13T13:22:45;99227.38;;;29.25;28.26
81155;BME280;70631;50.436;7.826;2023-07-13T13:25:11;99230.63;;;29.16;28.16
81155;BME280;70631;50.436;7.826;2023-07-13T13:27:37;99234.38;;;29.05;28.38
81155;BME280;70631;50.436;7.826;2023-07-13T13:30:10;99233.19;;;28.91;28.48
81155;BME280;70631;50.436;7.826;2023-07-13T13:32:38;99240.47;;;28.80;28.82
81155;BME280;70631;50.436;7.826;2023-07-13T13:35:03;99240.53;;;28.58;29.19